createdAt,value
2022-08-08T00:00:54.452Z,53.30
2022-08-08T00:02:43.342Z,53.53
2022-08-08T00:05:09.780Z,53.49
2022-08-08T00:07:40.640Z,53.80
2022-08-08T00:10:12.803Z,53.44
2022-08-08T00:12:56.653Z,53.42
2022-08-08T00:15:57.511Z,53.16
2022-08-08T00:18:20.534Z,53.55
2022-08-08T00:20:52.420Z,53.56
2022-08-08T00:23:28.293Z,53.83
2022-08-08T00:26:13.003Z,53.83
2022-08-08T00:28:43.111Z,54.17
2022-08-08T00:32:07.828Z,54.26
2022-08-08T00:34:30.230Z,54.23
2022-08-08T00:37:03.456Z,54.31
2022-08-08T00:41:07.003Z,54.53
2022-08-08T00:42:44.395Z,55.13
2022-08-08T00:45:32.212Z,55.68
2022-08-08T00:48:30.478Z,55.72
2022-08-08T00:51:24.534Z,55.43
2022-08-08T00:54:30.243Z,56.19
2022-08-08T00:57:19.715Z,56.19
2022-08-08T01:00:09.903Z,56.53
2022-08-08T01:04:00.165Z,56.82
2022-08-08T01:06:27.058Z,56.61
2022-08-08T01:09:36.093Z,56.48
2022-08-08T01:12:29.515Z,56.70
2022-08-08T01:15:37.358Z,56.77
2022-08-08T01:18:53.655Z,57.04
2022-08-08T01:21:35.121Z,57.32
2022-08-08T01:24:40.787Z,56.85
2022-08-08T01:27:33.198Z,57.89
2022-08-08T01:30:39.575Z,57.93
2022-08-08T01:33:27.956Z,57.85
2022-08-08T01:36:26.064Z,58.43
2022-08-08T01:39:23.750Z,58.53
2022-08-08T01:42:00.434Z,59.26
2022-08-08T01:44:35.376Z,59.22
2022-08-08T01:48:07.182Z,59.78
2022-08-08T01:50:06.115Z,58.83
2022-08-08T01:53:55.017Z,59.36
2022-08-08T01:56:28.261Z,60.08
2022-08-08T01:58:39.803Z,60.55
2022-08-08T02:01:25.319Z,60.35
2022-08-08T02:04:03.526Z,61.34
2022-08-08T02:06:43.931Z,60.63
2022-08-08T02:10:02.274Z,60.88
2022-08-08T02:12:18.458Z,60.01
2022-08-08T02:14:58.787Z,60.17
2022-08-08T02:17:36.813Z,60.01
2022-08-08T02:21:01.457Z,60.09
2022-08-08T02:23:15.987Z,59.59
2022-08-08T02:25:50.475Z,59.92
2022-08-08T02:28:26.176Z,60.23
2022-08-08T02:31:58.877Z,61.21
2022-08-08T02:34:08.448Z,61.44
2022-08-08T02:36:54.740Z,62.07
2022-08-08T02:39:42.609Z,62.33
2022-08-08T02:42:38.163Z,62.52
2022-08-08T02:45:22.791Z,62.72
2022-08-08T02:48:10.517Z,62.47
2022-08-08T02:51:03.784Z,62.72
2022-08-08T02:53:56.756Z,63.39
2022-08-08T02:56:43.693Z,63.90
2022-08-08T02:59:37.291Z,64.03
2022-08-08T03:02:38.162Z,63.66
2022-08-08T03:05:18.311Z,64.18
2022-08-08T03:08:07.040Z,64.29
2022-08-08T03:10:53.929Z,64.76
2022-08-08T03:15:59.449Z,64.79
2022-08-08T03:16:43.386Z,65.02
2022-08-08T03:19:25.914Z,65.10
2022-08-08T03:21:59.809Z,64.77
2022-08-08T03:24:31.560Z,65.19
2022-08-08T03:27:07.937Z,65.21
2022-08-08T03:29:54.912Z,65.70
2022-08-08T03:32:42.394Z,65.39
2022-08-08T03:35:22.565Z,65.52
2022-08-08T03:38:54.462Z,65.04
2022-08-08T03:40:39.744Z,65.08
2022-08-08T03:43:16.661Z,65.40
2022-08-08T03:46:06.016Z,65.58
2022-08-08T03:49:55.109Z,65.29
2022-08-08T03:51:40.424Z,65.38
2022-08-08T03:54:09.683Z,64.93
2022-08-08T03:56:38.861Z,65.08
2022-08-08T03:59:07.189Z,65.48
2022-08-08T04:02:13.118Z,65.56
2022-08-08T04:04:39.826Z,65.46
2022-08-08T04:07:09.647Z,65.30
2022-08-08T04:09:58.875Z,65.25
2022-08-08T04:12:28.309Z,65.82
2022-08-08T04:14:57.024Z,65.49
2022-08-08T04:17:46.741Z,65.24
2022-08-08T04:20:12.725Z,65.21
2022-08-08T04:22:40.450Z,65.20
2022-08-08T04:25:10.649Z,65.16
2022-08-08T04:28:35.563Z,64.57
2022-08-08T04:30:36.362Z,62.89
2022-08-08T04:33:08.042Z,62.64
2022-08-08T04:35:39.927Z,61.93
2022-08-08T04:38:11.666Z,61.97
2022-08-08T04:40:53.408Z,63.05
2022-08-08T04:43:31.661Z,63.21
2022-08-08T04:46:14.844Z,63.69
2022-08-08T04:48:43.394Z,63.36
2022-08-08T04:51:12.026Z,63.45
2022-08-08T04:54:27.511Z,63.83
2022-08-08T04:56:33.258Z,63.13
2022-08-08T04:59:03.747Z,61.91
2022-08-08T05:01:35.554Z,60.87
2022-08-08T05:04:16.492Z,60.95
2022-08-08T05:06:47.309Z,61.49
2022-08-08T05:09:18.808Z,60.31
2022-08-08T05:11:56.815Z,59.97
2022-08-08T05:14:29.253Z,60.10
2022-08-08T05:17:01.188Z,59.88
2022-08-08T05:20:11.574Z,59.76
2022-08-08T05:22:29.034Z,59.39
2022-08-08T05:24:58.030Z,59.11
2022-08-08T05:27:26.124Z,58.74
2022-08-08T05:29:56.527Z,59.31
2022-08-08T05:32:36.429Z,59.71
2022-08-08T05:35:06.701Z,59.21
2022-08-08T05:37:52.843Z,59.74
2022-08-08T05:40:29.318Z,58.93
2022-08-08T05:43:17.306Z,58.79
2022-08-08T05:45:55.166Z,59.00
2022-08-08T05:48:34.441Z,59.66
2022-08-08T05:51:13.579Z,60.13
2022-08-08T05:54:25.910Z,60.04
2022-08-08T05:56:42.267Z,59.70
2022-08-08T06:00:00.906Z,58.27
2022-08-08T06:02:34.730Z,58.47
2022-08-08T06:05:06.882Z,58.61
2022-08-08T06:07:53.284Z,59.28
2022-08-08T06:10:33.460Z,57.79
2022-08-08T06:13:03.927Z,58.08
2022-08-08T06:15:50.736Z,58.27
2022-08-08T06:18:29.952Z,58.20
2022-08-08T06:20:58.935Z,57.07
2022-08-08T06:23:49.062Z,56.86
2022-08-08T06:26:38.687Z,57.37
2022-08-08T06:29:26.452Z,56.19
2022-08-08T06:32:11.379Z,56.93
2022-08-08T06:34:56.199Z,57.00
2022-08-08T06:37:40.274Z,56.88
2022-08-08T06:40:16.582Z,56.15
2022-08-08T06:42:48.583Z,56.59
2022-08-08T06:45:17.869Z,56.09
2022-08-08T06:47:52.781Z,55.89
2022-08-08T06:50:33.572Z,55.79
2022-08-08T06:53:10.110Z,55.69
2022-08-08T06:55:47.442Z,55.32
2022-08-08T06:58:33.221Z,55.06
2022-08-08T07:01:24.313Z,54.49
2022-08-08T07:04:37.446Z,54.88
2022-08-08T07:06:46.116Z,54.14
2022-08-08T07:09:17.879Z,54.21
2022-08-08T07:11:52.354Z,53.54
2022-08-08T07:14:25.078Z,53.79
2022-08-08T07:17:00.476Z,53.78
2022-08-08T07:19:34.668Z,53.67
2022-08-08T07:22:12.140Z,53.74
2022-08-08T07:24:53.050Z,52.14
2022-08-08T07:27:35.526Z,51.38
2022-08-08T07:30:18.155Z,51.20
2022-08-08T07:32:49.743Z,50.95
2022-08-08T07:35:18.707Z,49.85
2022-08-08T07:38:04.506Z,48.65
2022-08-08T07:40:50.923Z,47.94
2022-08-08T07:43:32.361Z,48.75
2022-08-08T07:46:23.310Z,48.06
2022-08-08T07:48:55.526Z,47.69
2022-08-08T07:51:45.185Z,47.92
2022-08-08T07:54:26.692Z,46.23
2022-08-08T07:56:59.886Z,45.58
2022-08-08T07:59:37.536Z,46.99
2022-08-08T08:02:35.781Z,46.12
2022-08-08T08:04:57.268Z,43.10
2022-08-08T08:07:32.349Z,43.33
2022-08-08T08:10:12.573Z,41.84
2022-08-08T08:12:44.223Z,42.14
2022-08-08T08:15:18.177Z,41.80
2022-08-08T08:17:55.730Z,41.38
2022-08-08T08:20:30.235Z,41.39
2022-08-08T08:23:02.363Z,40.02
2022-08-08T08:25:40.737Z,39.93
2022-08-08T08:28:10.669Z,39.89
2022-08-08T08:30:45.755Z,39.78
2022-08-08T08:33:14.412Z,40.00
2022-08-08T08:36:20.630Z,38.53
2022-08-08T08:38:32.505Z,38.79
2022-08-08T08:41:17.089Z,37.70
2022-08-08T08:43:49.238Z,37.68
2022-08-08T08:46:19.097Z,37.49
2022-08-08T08:48:49.308Z,37.49
2022-08-08T08:51:20.059Z,37.56
2022-08-08T08:53:55.947Z,37.35
2022-08-08T08:56:34.528Z,37.51
2022-08-08T08:59:15.636Z,37.52
2022-08-08T09:01:51.763Z,37.27
2022-08-08T09:04:31.710Z,37.35
2022-08-08T09:07:13.667Z,36.67
2022-08-08T09:09:55.065Z,36.46
2022-08-08T09:12:37.457Z,36.33
2022-08-08T09:15:07.112Z,37.11
2022-08-08T09:17:55.743Z,35.29
2022-08-08T09:22:02.126Z,35.47
2022-08-08T09:23:24.496Z,34.96
2022-08-08T09:26:02.403Z,35.10
2022-08-08T09:28:40.160Z,35.21
2022-08-08T09:31:16.478Z,35.82
2022-08-08T09:34:14.711Z,35.56
2022-08-08T09:36:51.798Z,35.35
2022-08-08T09:39:47.517Z,35.04
2022-08-08T09:42:21.333Z,35.08
2022-08-08T09:45:04.180Z,35.68
2022-08-08T09:48:11.422Z,35.46
2022-08-08T09:50:32.353Z,34.98
2022-08-08T09:53:15.314Z,35.12
2022-08-08T09:56:04.115Z,35.02
2022-08-08T09:58:40.306Z,35.07
2022-08-08T10:01:14.366Z,34.98
2022-08-08T10:04:02.119Z,34.85
2022-08-08T10:06:35.972Z,34.77
2022-08-08T10:09:08.577Z,34.68
2022-08-08T10:12:26.405Z,34.38
2022-08-08T10:14:38.502Z,34.18
2022-08-08T10:17:56.309Z,34.10
2022-08-08T10:19:59.968Z,33.61
2022-08-08T10:22:28.761Z,33.66
2022-08-08T10:25:01.331Z,32.28
2022-08-08T10:27:34.511Z,32.16
2022-08-08T10:30:05.648Z,31.40
2022-08-08T10:32:38.133Z,31.52
2022-08-08T10:35:11.582Z,31.20
2022-08-08T10:37:43.073Z,31.78
2022-08-08T10:40:16.925Z,31.38
2022-08-08T10:42:45.837Z,31.03
2022-08-08T10:45:15.770Z,30.37
2022-08-08T10:47:55.132Z,30.87
2022-08-08T10:50:24.035Z,30.34
2022-08-08T10:52:51.934Z,30.12
2022-08-08T10:55:40.743Z,30.91
2022-08-08T10:58:09.195Z,30.16
2022-08-08T11:00:48.987Z,30.78
2022-08-08T11:03:37.215Z,31.33
2022-08-08T11:06:12.530Z,31.20
2022-08-08T11:08:50.068Z,32.25
2022-08-08T11:12:00.223Z,31.99
2022-08-08T11:14:12.225Z,32.45
2022-08-08T11:16:46.593Z,32.40
2022-08-08T11:19:18.160Z,31.64
2022-08-08T11:21:54.142Z,32.24
2022-08-08T11:24:25.826Z,32.29
2022-08-08T11:26:56.593Z,32.82
2022-08-08T11:29:41.894Z,29.19
2022-08-08T11:32:16.872Z,27.53
2022-08-08T11:35:07.781Z,30.74
2022-08-08T11:38:34.604Z,32.01
2022-08-08T11:40:26.508Z,31.97
2022-08-08T11:42:55.582Z,29.29
2022-08-08T11:45:24.052Z,27.49
2022-08-08T11:48:04.541Z,23.98
2022-08-08T11:50:35.308Z,26.02
2022-08-08T11:53:05.834Z,26.67
2022-08-08T11:55:36.426Z,28.50
2022-08-08T11:58:14.392Z,29.72
2022-08-08T12:00:47.132Z,29.91
2022-08-08T12:03:16.893Z,25.63
2022-08-08T12:05:50.726Z,23.79
2022-08-08T12:08:30.823Z,23.06
2022-08-08T12:11:01.230Z,24.09
2022-08-08T12:13:37.834Z,25.70
2022-08-08T12:16:28.133Z,27.58
2022-08-08T12:19:02.063Z,30.04
2022-08-08T12:21:59.218Z,29.03
2022-08-08T12:24:28.144Z,28.95
2022-08-08T12:26:58.565Z,29.18
2022-08-08T12:29:40.253Z,30.64
2022-08-08T12:32:17.295Z,31.51
2022-08-08T12:34:52.927Z,31.68
2022-08-08T12:37:41.444Z,31.49
2022-08-08T12:40:24.219Z,32.15
2022-08-08T12:42:53.527Z,31.93
2022-08-08T12:45:58.580Z,31.15
2022-08-08T12:48:35.800Z,31.27
2022-08-08T12:51:05.131Z,30.32
2022-08-08T12:53:42.230Z,29.82
2022-08-08T12:56:18.713Z,29.46
2022-08-08T12:58:54.317Z,27.25
2022-08-08T13:01:35.049Z,25.41
2022-08-08T13:04:18.565Z,25.69
2022-08-08T13:06:54.596Z,23.60
2022-08-08T13:09:43.207Z,21.91
2022-08-08T13:12:29.523Z,22.90
2022-08-08T13:14:58.646Z,22.85
2022-08-08T13:18:08.902Z,22.60
2022-08-08T13:20:17.268Z,24.93
2022-08-08T13:22:47.462Z,24.08
2022-08-08T13:25:18.096Z,24.03
2022-08-08T13:27:54.647Z,23.25
2022-08-08T13:30:26.322Z,24.05
2022-08-08T13:32:56.609Z,24.64
2022-08-08T13:35:39.061Z,24.82
2022-08-08T13:38:12.173Z,25.33
2022-08-08T13:40:44.832Z,26.09
2022-08-08T13:43:18.939Z,25.59
2022-08-08T13:45:48.849Z,25.29
2022-08-08T13:48:17.263Z,24.97
2022-08-08T13:50:57.622Z,25.91
2022-08-08T13:53:27.010Z,25.15
2022-08-08T13:56:01.592Z,24.50
2022-08-08T13:58:30.463Z,25.04
2022-08-08T14:00:58.757Z,25.27
2022-08-08T14:03:53.564Z,24.92
2022-08-08T14:06:32.368Z,25.21
2022-08-08T14:09:24.488Z,25.88
2022-08-08T14:11:52.018Z,25.84
2022-08-08T14:14:26.123Z,25.33
2022-08-08T14:16:55.551Z,25.56
2022-08-08T14:19:56.973Z,27.80
2022-08-08T14:22:21.594Z,26.46
2022-08-08T14:24:50.638Z,25.82
2022-08-08T14:27:27.100Z,27.48
2022-08-08T14:30:00.961Z,27.16
2022-08-08T14:32:30.590Z,27.63
2022-08-08T14:35:04.712Z,28.10
2022-08-08T14:37:43.102Z,27.81
2022-08-08T14:40:29.683Z,28.26
2022-08-08T14:43:01.537Z,27.67
2022-08-08T14:45:46.697Z,28.17
2022-08-08T14:48:34.776Z,26.36
2022-08-08T14:51:07.789Z,26.31
2022-08-08T14:53:37.278Z,26.13
2022-08-08T14:56:05.731Z,26.74
2022-08-08T14:58:34.873Z,26.86
2022-08-08T15:01:04.829Z,27.00
2022-08-08T15:03:38.590Z,26.90
2022-08-08T15:06:16.617Z,25.85
2022-08-08T15:08:54.802Z,26.57
2022-08-08T15:11:23.049Z,26.83
2022-08-08T15:14:03.081Z,27.39
2022-08-08T15:16:34.512Z,27.32
2022-08-08T15:19:03.293Z,26.36
2022-08-08T15:21:31.466Z,27.68
2022-08-08T15:23:59.481Z,27.82
2022-08-08T15:26:29.227Z,27.68
2022-08-08T15:28:58.673Z,27.42
2022-08-08T15:31:55.845Z,26.19
2022-08-08T15:34:18.665Z,26.66
2022-08-08T15:36:58.577Z,27.39
2022-08-08T15:39:31.156Z,27.59
2022-08-08T15:41:59.485Z,26.62
2022-08-08T15:44:29.697Z,27.06
2022-08-08T15:46:59.396Z,27.07
2022-08-08T15:49:29.372Z,26.22
2022-08-08T15:51:57.374Z,27.52
2022-08-08T15:54:38.281Z,28.00
2022-08-08T15:57:09.087Z,26.64
2022-08-08T16:00:06.700Z,27.21
2022-08-08T16:02:30.916Z,26.85
2022-08-08T16:04:59.543Z,27.26
2022-08-08T16:07:51.151Z,27.86
2022-08-08T16:13:28.300Z,27.72
2022-08-08T16:13:45.878Z,28.04
2022-08-08T16:15:58.228Z,27.52
2022-08-08T16:18:33.095Z,27.67
2022-08-08T16:21:01.362Z,28.23
2022-08-08T16:23:31.714Z,28.01
2022-08-08T16:26:08.007Z,27.62
2022-08-08T16:28:41.462Z,28.53
2022-08-08T16:31:11.070Z,28.86
2022-08-08T16:33:40.415Z,28.61
2022-08-08T16:36:09.526Z,28.14
2022-08-08T16:38:44.596Z,29.61
2022-08-08T16:41:20.119Z,29.07
2022-08-08T16:43:51.517Z,28.89
2022-08-08T16:46:43.516Z,28.91
2022-08-08T16:49:09.706Z,29.40
2022-08-08T16:55:00.057Z,29.46
2022-08-08T16:55:04.699Z,29.32
2022-08-08T16:57:23.688Z,29.38
2022-08-08T17:00:09.083Z,29.09
2022-08-08T17:02:39.972Z,29.36
2022-08-08T17:05:10.183Z,29.13
2022-08-08T17:07:42.165Z,28.64
2022-08-08T17:10:11.519Z,28.94
2022-08-08T17:12:41.605Z,28.60
2022-08-08T17:15:21.383Z,29.21
2022-08-08T17:18:02.874Z,29.02
2022-08-08T17:20:32.219Z,34.08
2022-08-08T17:23:17.693Z,29.92
2022-08-08T17:25:52.152Z,30.76
2022-08-08T17:28:30.742Z,30.56
2022-08-08T17:31:02.738Z,30.70
2022-08-08T17:34:54.083Z,30.61
2022-08-08T17:36:55.185Z,31.66
2022-08-08T17:40:04.656Z,31.13
2022-08-08T17:42:15.409Z,31.65
2022-08-08T17:44:44.204Z,32.34
2022-08-08T17:47:23.233Z,31.87
2022-08-08T17:50:01.122Z,32.58
2022-08-08T17:52:31.274Z,32.30
2022-08-08T17:55:05.473Z,32.97
2022-08-08T17:57:37.446Z,32.78
2022-08-08T18:00:13.395Z,33.29
2022-08-08T18:03:02.138Z,32.96
2022-08-08T18:05:49.441Z,32.94
2022-08-08T18:08:25.389Z,32.51
2022-08-08T18:11:06.851Z,33.01
2022-08-08T18:13:41.925Z,33.30
2022-08-08T18:16:10.483Z,33.52
2022-08-08T18:18:42.451Z,33.86
2022-08-08T18:21:24.915Z,34.07
2022-08-08T18:24:03.033Z,34.73
2022-08-08T18:26:30.976Z,34.76
2022-08-08T18:29:01.626Z,35.38
2022-08-08T18:31:29.466Z,35.63
2022-08-08T18:34:11.731Z,36.59
2022-08-08T18:36:47.637Z,37.04
2022-08-08T18:39:16.394Z,38.33
2022-08-08T18:41:59.542Z,38.35
2022-08-08T18:44:28.957Z,38.91
2022-08-08T18:46:57.758Z,39.50
2022-08-08T18:49:40.856Z,39.63
2022-08-08T18:52:18.390Z,40.40
2022-08-08T18:54:59.386Z,40.79
2022-08-08T18:57:41.202Z,41.24
2022-08-08T19:00:15.591Z,42.26
2022-08-08T19:02:48.497Z,42.03
2022-08-08T19:05:24.128Z,42.74
2022-08-08T19:08:00.074Z,43.28
2022-08-08T19:10:28.506Z,43.36
2022-08-08T19:12:57.927Z,43.25
2022-08-08T19:15:33.997Z,43.93
2022-08-08T19:18:32.102Z,43.98
2022-08-08T19:20:50.496Z,44.32
2022-08-08T19:23:21.713Z,44.22
2022-08-08T19:26:27.045Z,44.53
2022-08-08T19:28:41.350Z,44.73
2022-08-08T19:31:10.011Z,45.20
2022-08-08T19:34:05.162Z,45.12
2022-08-08T19:36:28.550Z,45.68
2022-08-08T19:38:57.727Z,45.48
2022-08-08T19:41:28.057Z,45.95
2022-08-08T19:44:03.225Z,45.57
2022-08-08T19:46:33.470Z,46.09
2022-08-08T19:49:01.753Z,46.47
2022-08-08T19:51:34.567Z,46.29
2022-08-08T19:54:08.592Z,46.46
2022-08-08T19:56:40.259Z,46.72
2022-08-08T19:59:09.175Z,46.80
2022-08-08T20:02:01.659Z,46.88
2022-08-08T20:04:26.303Z,46.87
2022-08-08T20:06:54.100Z,47.32
2022-08-08T20:09:30.089Z,47.41
2022-08-08T20:12:00.326Z,47.07
2022-08-08T20:14:35.606Z,47.38
2022-08-08T20:17:04.324Z,47.38
2022-08-08T20:19:34.659Z,47.83
2022-08-08T20:22:21.052Z,47.77
2022-08-08T20:25:00.348Z,48.36
2022-08-08T20:27:32.871Z,48.81
2022-08-08T20:30:38.989Z,49.43
2022-08-08T20:33:00.831Z,48.83
2022-08-08T20:35:57.533Z,48.70
2022-08-08T20:38:16.345Z,49.25
2022-08-08T20:40:51.232Z,48.92
2022-08-08T20:43:23.083Z,49.28
2022-08-08T20:46:08.287Z,49.08
2022-08-08T20:48:37.886Z,49.21
2022-08-08T20:51:06.192Z,49.92
2022-08-08T20:53:59.172Z,51.05
2022-08-08T20:56:35.745Z,50.24
2022-08-08T20:59:11.337Z,49.88
2022-08-08T21:02:06.914Z,50.19
2022-08-08T21:04:29.710Z,50.44
2022-08-08T21:06:57.469Z,50.06
2022-08-08T21:09:31.795Z,50.91
2022-08-08T21:12:14.379Z,50.64
2022-08-08T21:14:49.122Z,50.37
2022-08-08T21:17:17.093Z,50.33
2022-08-08T21:19:47.372Z,50.65
2022-08-08T21:22:15.863Z,50.80
2022-08-08T21:24:53.568Z,51.00
2022-08-08T21:28:05.065Z,51.75
2022-08-08T21:30:19.157Z,51.56
2022-08-08T21:32:52.133Z,51.08
2022-08-08T21:36:14.938Z,51.63
2022-08-08T21:38:16.445Z,51.77
2022-08-08T21:40:54.653Z,52.04
2022-08-08T21:43:25.729Z,51.95
2022-08-08T21:48:05.363Z,52.38
2022-08-08T21:48:51.082Z,52.68
2022-08-08T21:54:18.049Z,53.10
2022-08-08T21:54:36.541Z,53.00
2022-08-08T21:56:56.498Z,53.09
2022-08-08T21:59:25.544Z,53.11
2022-08-08T22:01:57.982Z,52.82
2022-08-08T22:04:28.761Z,52.96
2022-08-08T22:06:56.778Z,52.97
2022-08-08T22:09:26.899Z,53.46
2022-08-08T22:12:09.607Z,52.77
2022-08-08T22:14:39.032Z,52.16
2022-08-08T22:17:10.928Z,52.61
2022-08-08T22:20:12.850Z,52.54
2022-08-08T22:22:29.177Z,53.45
2022-08-08T22:24:57.942Z,53.70
2022-08-08T22:27:39.035Z,52.69
2022-08-08T22:30:15.058Z,53.39
2022-08-08T22:32:57.156Z,54.13
2022-08-08T22:35:27.449Z,53.83
2022-08-08T22:38:17.508Z,53.34
2022-08-08T22:40:48.912Z,53.60
2022-08-08T22:43:17.181Z,53.14
2022-08-08T22:45:46.508Z,53.81
2022-08-08T22:48:21.702Z,53.06
2022-08-08T22:50:50.137Z,53.41
2022-08-08T22:54:32.700Z,53.94
2022-08-08T22:56:06.580Z,54.97
2022-08-08T22:58:35.165Z,54.74
2022-08-08T23:02:00.625Z,54.05
2022-08-08T23:03:53.701Z,55.26
2022-08-08T23:06:23.492Z,55.42
2022-08-08T23:08:55.084Z,55.60
2022-08-08T23:11:58.249Z,55.60
2022-08-08T23:14:11.931Z,55.42
2022-08-08T23:16:43.371Z,56.16
2022-08-08T23:19:12.543Z,56.23
2022-08-08T23:21:42.950Z,56.95
2022-08-08T23:24:13.503Z,56.88
2022-08-08T23:26:55.448Z,56.74
2022-08-08T23:29:24.146Z,56.64
2022-08-08T23:31:53.218Z,56.61
2022-08-08T23:34:21.549Z,56.96
2022-08-08T23:36:52.285Z,57.19
2022-08-08T23:39:22.186Z,57.26
2022-08-08T23:41:49.845Z,57.00
2022-08-08T23:44:18.651Z,57.76
2022-08-08T23:49:04.329Z,57.96
2022-08-08T23:49:35.885Z,58.62
2022-08-08T23:52:08.212Z,57.49
2022-08-08T23:54:41.270Z,57.84
2022-08-08T23:57:26.694Z,57.98
